WZZ50ML EBCI-EPWA
Flight info
| Callsign | WZZ50ML |
|---|---|
| Flight time | 1h 40m |
| Altitude | 35000 |
| Route | SPI Y862 KENUM N853 ONUNE DCT TOLTA DCT MAG DCT GOVEN DCT ADVAB DCT OBOKU P150 BIMPA |
| Aircraft | A320/M-SDE3FGHIRWY/LB1 |
Departure
| Time | 2026-05-05 06:39 |
|---|---|
| Airport | Brussels South Charleroi Airport (EBCI) |
Arrival
| Time | 2026-05-05 08:19 |
|---|---|
| Airport | Warsaw Chopin Airport (EPWA) |
| Time | Latitude | Longitude | Altitude | Speed | Heading |
|---|---|---|---|---|---|
| 2026-05-05 06:08 | 50.46839 | 4.46986 | 611 ft | 0 kts | 335° |
| 2026-05-05 06:31 | 50.46830 | 4.46992 | 611 ft | 4 kts | 335° |
| 2026-05-05 06:31 | 50.46805 | 4.47008 | 623 ft | 4 kts | 348° |
| 2026-05-05 06:32 | 50.46784 | 4.47008 | 622 ft | 4 kts | 55° |
| 2026-05-05 06:32 | 50.46781 | 4.47002 | 624 ft | 0 kts | 65° |
| 2026-05-05 06:35 | 50.46783 | 4.47008 | 622 ft | 2 kts | 65° |
| 2026-05-05 06:35 | 50.46793 | 4.47042 | 613 ft | 5 kts | 65° |
| 2026-05-05 06:35 | 50.46811 | 4.47105 | 613 ft | 8 kts | 65° |
| 2026-05-05 06:35 | 50.46838 | 4.47198 | 617 ft | 11 kts | 65° |
| 2026-05-05 06:36 | 50.46874 | 4.47321 | 617 ft | 14 kts | 65° |
| 2026-05-05 06:36 | 50.46916 | 4.47464 | 619 ft | 13 kts | 65° |
| 2026-05-05 06:36 | 50.46951 | 4.47584 | 613 ft | 4 kts | 65° |
| 2026-05-05 06:36 | 50.46935 | 4.47616 | 619 ft | 5 kts | 165° |
| 2026-05-05 06:37 | 50.46893 | 4.47620 | 607 ft | 7 kts | 177° |
| 2026-05-05 06:37 | 50.46842 | 4.47651 | 623 ft | 9 kts | 151° |
| 2026-05-05 06:37 | 50.46784 | 4.47701 | 615 ft | 10 kts | 151° |
| 2026-05-05 06:37 | 50.46725 | 4.47748 | 618 ft | 2 kts | 158° |
| 2026-05-05 06:38 | 50.46706 | 4.47747 | 612 ft | 4 kts | 198° |
| 2026-05-05 06:38 | 50.46685 | 4.47693 | 615 ft | 7 kts | 246° |
| 2026-05-05 06:38 | 50.46632 | 4.47508 | 621 ft | 47 kts | 246° |
| 2026-05-05 06:38 | 50.46390 | 4.46674 | 616 ft | 116 kts | 245° |
| 2026-05-05 06:39 | 50.45986 | 4.45256 | 652 ft | 164 kts | 249° |
| 2026-05-05 06:39 | 50.45518 | 4.43590 | 1296 ft | 167 kts | 248° |
| 2026-05-05 06:39 | 50.45040 | 4.41916 | 1945 ft | 169 kts | 249° |
| 2026-05-05 06:39 | 50.44532 | 4.40144 | 2270 ft | 189 kts | 247° |
| 2026-05-05 06:40 | 50.43960 | 4.38158 | 2521 ft | 211 kts | 247° |
| 2026-05-05 06:40 | 50.43322 | 4.35945 | 2802 ft | 233 kts | 245° |
| 2026-05-05 06:40 | 50.42341 | 4.33917 | 3505 ft | 237 kts | 217° |
| 2026-05-05 06:40 | 50.40852 | 4.32847 | 4246 ft | 237 kts | 186° |
| 2026-05-05 06:41 | 50.39237 | 4.33064 | 5052 ft | 234 kts | 155° |
| 2026-05-05 06:41 | 50.37916 | 4.34467 | 5845 ft | 230 kts | 127° |
| 2026-05-05 06:41 | 50.37195 | 4.36666 | 6610 ft | 228 kts | 98° |
| 2026-05-05 06:41 | 50.37210 | 4.39113 | 7357 ft | 226 kts | 76° |
| 2026-05-05 06:42 | 50.37523 | 4.41588 | 7787 ft | 246 kts | 77° |
| 2026-05-05 06:42 | 50.37872 | 4.44379 | 8191 ft | 267 kts | 77° |
| 2026-05-05 06:42 | 50.38222 | 4.47245 | 8863 ft | 274 kts | 77° |
| 2026-05-05 06:42 | 50.38576 | 4.50200 | 9663 ft | 278 kts | 78° |
| 2026-05-05 06:43 | 50.38936 | 4.53224 | 10263 ft | 289 kts | 78° |
| 2026-05-05 06:43 | 50.39320 | 4.56441 | 10474 ft | 312 kts | 78° |
| 2026-05-05 06:43 | 50.39730 | 4.59866 | 10854 ft | 326 kts | 78° |
| 2026-05-05 06:43 | 50.40151 | 4.63397 | 11452 ft | 333 kts | 78° |
| 2026-05-05 06:44 | 50.40576 | 4.66982 | 12133 ft | 336 kts | 78° |
| 2026-05-05 06:44 | 50.41004 | 4.70604 | 12799 ft | 340 kts | 78° |
| 2026-05-05 06:44 | 50.41437 | 4.74276 | 13453 ft | 344 kts | 79° |
| 2026-05-05 06:44 | 50.41875 | 4.77991 | 14086 ft | 347 kts | 79° |
| 2026-05-05 06:45 | 50.42316 | 4.81737 | 14672 ft | 351 kts | 79° |
| 2026-05-05 06:45 | 50.42760 | 4.85534 | 15247 ft | 355 kts | 79° |
| 2026-05-05 06:45 | 50.43199 | 4.89302 | 15846 ft | 357 kts | 79° |
| 2026-05-05 06:45 | 50.43652 | 4.93204 | 16405 ft | 361 kts | 80° |
| 2026-05-05 06:46 | 50.44097 | 4.97050 | 16983 ft | 363 kts | 80° |
| 2026-05-05 06:46 | 50.44549 | 5.00961 | 17568 ft | 366 kts | 80° |
| 2026-05-05 06:46 | 50.45005 | 5.04918 | 18113 ft | 370 kts | 80° |
| 2026-05-05 06:46 | 50.45464 | 5.08908 | 18634 ft | 373 kts | 80° |
| 2026-05-05 06:47 | 50.45925 | 5.12951 | 19056 ft | 379 kts | 80° |
| 2026-05-05 06:47 | 50.46391 | 5.17043 | 19517 ft | 383 kts | 81° |
| 2026-05-05 06:47 | 50.46862 | 5.21178 | 20025 ft | 386 kts | 81° |
| 2026-05-05 06:47 | 50.47336 | 5.25350 | 20491 ft | 390 kts | 81° |
| 2026-05-05 06:48 | 50.47814 | 5.29558 | 20944 ft | 393 kts | 80° |
| 2026-05-05 06:48 | 50.48297 | 5.33813 | 21404 ft | 396 kts | 81° |
| 2026-05-05 06:48 | 50.48781 | 5.38093 | 21856 ft | 400 kts | 81° |
| 2026-05-05 06:48 | 50.49265 | 5.42409 | 22304 ft | 403 kts | 81° |
| 2026-05-05 06:49 | 50.49744 | 5.46700 | 22757 ft | 406 kts | 81° |
| 2026-05-05 06:49 | 50.50229 | 5.51085 | 23205 ft | 409 kts | 81° |
| 2026-05-05 06:49 | 50.50715 | 5.55492 | 23625 ft | 412 kts | 81° |
| 2026-05-05 06:49 | 50.51247 | 5.59939 | 23980 ft | 415 kts | 77° |
| 2026-05-05 06:50 | 50.52171 | 5.64262 | 24284 ft | 421 kts | 66° |
| 2026-05-05 06:50 | 50.53514 | 5.68380 | 24595 ft | 425 kts | 62° |
| 2026-05-05 06:50 | 50.54925 | 5.72494 | 24927 ft | 429 kts | 62° |
| 2026-05-05 06:50 | 50.56340 | 5.76642 | 25256 ft | 432 kts | 62° |
| 2026-05-05 06:51 | 50.57761 | 5.80825 | 25589 ft | 436 kts | 63° |
| 2026-05-05 06:51 | 50.59191 | 5.85059 | 25924 ft | 439 kts | 63° |
| 2026-05-05 06:51 | 50.60630 | 5.89335 | 26263 ft | 443 kts | 63° |
| 2026-05-05 06:51 | 50.62075 | 5.93636 | 26580 ft | 446 kts | 63° |
| 2026-05-05 06:52 | 50.63532 | 5.97972 | 26905 ft | 450 kts | 63° |
| 2026-05-05 06:52 | 50.65000 | 6.02343 | 27220 ft | 453 kts | 63° |
| 2026-05-05 06:52 | 50.66476 | 6.06737 | 27541 ft | 456 kts | 63° |
| 2026-05-05 06:52 | 50.67963 | 6.11175 | 27859 ft | 459 kts | 63° |
| 2026-05-05 06:53 | 50.69458 | 6.15648 | 28201 ft | 463 kts | 63° |
| 2026-05-05 06:53 | 50.70989 | 6.20132 | 28496 ft | 466 kts | 60° |
| 2026-05-05 06:53 | 50.72824 | 6.24304 | 28774 ft | 471 kts | 50° |
| 2026-05-05 06:53 | 50.75076 | 6.28072 | 29050 ft | 474 kts | 41° |
| 2026-05-05 06:54 | 50.77547 | 6.31626 | 29376 ft | 477 kts | 41° |
| 2026-05-05 06:54 | 50.79970 | 6.35130 | 29666 ft | 480 kts | 41° |
| 2026-05-05 06:54 | 50.82433 | 6.38709 | 30028 ft | 481 kts | 41° |
| 2026-05-05 06:54 | 50.84892 | 6.42303 | 30401 ft | 481 kts | 42° |
| 2026-05-05 06:55 | 50.87353 | 6.45918 | 30765 ft | 482 kts | 42° |
| 2026-05-05 06:55 | 50.89811 | 6.49531 | 31144 ft | 482 kts | 42° |
| 2026-05-05 06:55 | 50.92265 | 6.53139 | 31518 ft | 483 kts | 42° |
| 2026-05-05 06:55 | 50.94728 | 6.56760 | 31915 ft | 483 kts | 42° |
| 2026-05-05 06:56 | 50.97194 | 6.60385 | 32290 ft | 484 kts | 42° |
| 2026-05-05 06:56 | 50.99663 | 6.64018 | 32669 ft | 484 kts | 41° |
| 2026-05-05 06:56 | 51.02087 | 6.67743 | 33046 ft | 485 kts | 47° |
| 2026-05-05 06:56 | 51.04205 | 6.71898 | 33406 ft | 485 kts | 53° |
| 2026-05-05 06:57 | 51.06236 | 6.76190 | 33779 ft | 486 kts | 53° |
| 2026-05-05 06:57 | 51.08277 | 6.80493 | 34105 ft | 486 kts | 53° |
| 2026-05-05 06:57 | 51.10315 | 6.84787 | 34455 ft | 485 kts | 53° |
| 2026-05-05 06:57 | 51.12346 | 6.89071 | 34798 ft | 485 kts | 53° |
| 2026-05-05 06:58 | 51.14345 | 6.93297 | 34906 ft | 485 kts | 52° |
| 2026-05-05 06:58 | 51.18399 | 7.01902 | 34914 ft | 485 kts | 53° |
| 2026-05-05 06:59 | 51.22436 | 7.10526 | 34909 ft | 485 kts | 53° |
| 2026-05-05 06:59 | 51.26465 | 7.19169 | 34904 ft | 485 kts | 53° |
| 2026-05-05 07:00 | 51.30489 | 7.27814 | 34900 ft | 484 kts | 52° |
| 2026-05-05 07:00 | 51.34501 | 7.36461 | 34917 ft | 484 kts | 54° |
| 2026-05-05 07:01 | 51.37557 | 7.46024 | 34906 ft | 484 kts | 72° |
| 2026-05-05 07:01 | 51.39273 | 7.56348 | 34923 ft | 483 kts | 77° |
| 2026-05-05 07:02 | 51.40944 | 7.66784 | 34917 ft | 483 kts | 77° |
| 2026-05-05 07:02 | 51.42605 | 7.77219 | 34895 ft | 483 kts | 77° |
| 2026-05-05 07:03 | 51.44257 | 7.87655 | 34901 ft | 483 kts | 77° |
| 2026-05-05 07:03 | 51.45902 | 7.98104 | 34893 ft | 483 kts | 77° |
| 2026-05-05 07:04 | 51.47262 | 8.06792 | 34899 ft | 483 kts | 77° |
| 2026-05-05 07:04 | 51.48879 | 8.17270 | 34890 ft | 483 kts | 77° |
| 2026-05-05 07:05 | 51.50490 | 8.27769 | 34896 ft | 483 kts | 77° |
| 2026-05-05 07:05 | 51.52088 | 8.38238 | 34902 ft | 484 kts | 77° |
| 2026-05-05 07:06 | 51.53685 | 8.48750 | 34921 ft | 484 kts | 77° |
| 2026-05-05 07:06 | 51.55275 | 8.59262 | 34922 ft | 485 kts | 77° |
| 2026-05-05 07:07 | 51.56847 | 8.69728 | 34923 ft | 485 kts | 77° |
| 2026-05-05 07:07 | 51.58423 | 8.80270 | 34916 ft | 485 kts | 78° |
| 2026-05-05 07:08 | 51.59990 | 8.90849 | 34919 ft | 485 kts | 78° |
| 2026-05-05 07:08 | 51.61541 | 9.01430 | 34914 ft | 485 kts | 78° |
| 2026-05-05 07:09 | 51.63074 | 9.11980 | 34912 ft | 485 kts | 78° |
| 2026-05-05 07:09 | 51.64607 | 9.22558 | 34907 ft | 485 kts | 78° |
| 2026-05-05 07:10 | 51.66120 | 9.33074 | 34909 ft | 485 kts | 78° |
| 2026-05-05 07:10 | 51.67640 | 9.43656 | 34941 ft | 485 kts | 78° |
| 2026-05-05 07:11 | 51.69149 | 9.54252 | 34927 ft | 485 kts | 78° |
| 2026-05-05 07:11 | 51.70669 | 9.64838 | 34923 ft | 485 kts | 78° |
| 2026-05-05 07:12 | 51.72203 | 9.75419 | 34894 ft | 484 kts | 78° |
| 2026-05-05 07:12 | 51.73729 | 9.86016 | 34911 ft | 485 kts | 78° |
| 2026-05-05 07:13 | 51.75225 | 9.96549 | 34923 ft | 485 kts | 78° |
| 2026-05-05 07:13 | 51.76714 | 10.07173 | 34920 ft | 485 kts | 78° |
| 2026-05-05 07:14 | 51.78207 | 10.17847 | 34920 ft | 485 kts | 78° |
| 2026-05-05 07:14 | 51.79686 | 10.28466 | 34907 ft | 484 kts | 78° |
| 2026-05-05 07:15 | 51.81146 | 10.39015 | 34911 ft | 484 kts | 79° |
| 2026-05-05 07:15 | 51.82601 | 10.49639 | 34928 ft | 484 kts | 79° |
| 2026-05-05 07:16 | 51.84042 | 10.60267 | 34921 ft | 484 kts | 79° |
| 2026-05-05 07:16 | 51.85464 | 10.70897 | 34919 ft | 483 kts | 79° |
| 2026-05-05 07:17 | 51.86882 | 10.81533 | 34908 ft | 483 kts | 79° |
| 2026-05-05 07:17 | 51.88304 | 10.92183 | 34917 ft | 483 kts | 79° |
| 2026-05-05 07:18 | 51.89710 | 11.02823 | 34916 ft | 483 kts | 79° |
| 2026-05-05 07:18 | 51.91103 | 11.13463 | 34918 ft | 483 kts | 79° |
| 2026-05-05 07:19 | 51.92488 | 11.24100 | 34920 ft | 482 kts | 79° |
| 2026-05-05 07:19 | 51.93857 | 11.34743 | 34925 ft | 482 kts | 80° |
| 2026-05-05 07:20 | 51.95204 | 11.45323 | 34932 ft | 482 kts | 80° |
| 2026-05-05 07:20 | 51.96551 | 11.55955 | 34940 ft | 481 kts | 80° |
| 2026-05-05 07:21 | 51.97899 | 11.66611 | 34940 ft | 481 kts | 80° |
| 2026-05-05 07:21 | 51.99230 | 11.77258 | 34933 ft | 481 kts | 82° |
| 2026-05-05 07:22 | 51.99783 | 11.88004 | 34917 ft | 477 kts | 89° |
| 2026-05-05 07:22 | 52.00136 | 11.98761 | 34916 ft | 477 kts | 89° |
| 2026-05-05 07:23 | 52.00486 | 12.09455 | 34916 ft | 477 kts | 89° |
| 2026-05-05 07:23 | 52.00819 | 12.20209 | 34915 ft | 477 kts | 90° |
| 2026-05-05 07:24 | 52.01135 | 12.30966 | 34916 ft | 477 kts | 90° |
| 2026-05-05 07:24 | 52.01448 | 12.41714 | 34902 ft | 477 kts | 90° |
| 2026-05-05 07:25 | 52.01755 | 12.52467 | 34907 ft | 477 kts | 90° |
| 2026-05-05 07:25 | 52.02049 | 12.63222 | 34907 ft | 476 kts | 90° |
| 2026-05-05 07:26 | 52.02333 | 12.73968 | 34911 ft | 476 kts | 90° |
| 2026-05-05 07:26 | 52.02607 | 12.84730 | 34890 ft | 477 kts | 90° |
| 2026-05-05 07:27 | 52.02873 | 12.95478 | 34897 ft | 476 kts | 90° |
| 2026-05-05 07:27 | 52.03127 | 13.06143 | 34903 ft | 476 kts | 90° |
| 2026-05-05 07:28 | 52.03370 | 13.16875 | 34921 ft | 475 kts | 90° |
| 2026-05-05 07:28 | 52.03598 | 13.27611 | 34919 ft | 475 kts | 91° |
| 2026-05-05 07:29 | 52.03820 | 13.38332 | 34900 ft | 475 kts | 90° |
| 2026-05-05 07:29 | 52.04038 | 13.49048 | 34915 ft | 475 kts | 90° |
| 2026-05-05 07:30 | 52.04247 | 13.59772 | 34918 ft | 474 kts | 91° |
| 2026-05-05 07:30 | 52.04534 | 13.75826 | 34915 ft | 474 kts | 91° |
| 2026-05-05 07:31 | 52.04710 | 13.86524 | 34895 ft | 474 kts | 91° |
| 2026-05-05 07:31 | 52.04888 | 13.97221 | 34900 ft | 474 kts | 91° |
| 2026-05-05 07:32 | 52.05046 | 14.07922 | 34907 ft | 474 kts | 91° |
| 2026-05-05 07:32 | 52.05195 | 14.18572 | 34914 ft | 474 kts | 91° |
| 2026-05-05 07:33 | 52.05342 | 14.29282 | 34915 ft | 474 kts | 91° |
| 2026-05-05 07:33 | 52.05473 | 14.39988 | 34913 ft | 474 kts | 91° |
| 2026-05-05 07:34 | 52.05591 | 14.50716 | 34912 ft | 474 kts | 91° |
| 2026-05-05 07:34 | 52.05699 | 14.61425 | 34914 ft | 474 kts | 91° |
| 2026-05-05 07:35 | 52.05797 | 14.72129 | 34916 ft | 474 kts | 91° |
| 2026-05-05 07:35 | 52.06013 | 14.82838 | 34916 ft | 475 kts | 88° |
| 2026-05-05 07:36 | 52.06530 | 14.93480 | 34911 ft | 475 kts | 87° |
| 2026-05-05 07:36 | 52.07098 | 15.04177 | 34918 ft | 475 kts | 88° |
| 2026-05-05 07:37 | 52.07580 | 15.14890 | 34915 ft | 475 kts | 88° |
| 2026-05-05 07:37 | 52.08003 | 15.25606 | 34921 ft | 474 kts | 89° |
| 2026-05-05 07:38 | 52.08415 | 15.36313 | 34918 ft | 474 kts | 89° |
| 2026-05-05 07:38 | 52.08828 | 15.47022 | 34904 ft | 474 kts | 89° |
| 2026-05-05 07:39 | 52.09242 | 15.57701 | 34907 ft | 474 kts | 89° |
| 2026-05-05 07:39 | 52.09651 | 15.68392 | 34904 ft | 474 kts | 89° |
| 2026-05-05 07:40 | 52.10042 | 15.79076 | 34905 ft | 473 kts | 89° |
| 2026-05-05 07:40 | 52.10423 | 15.89687 | 34903 ft | 473 kts | 89° |
| 2026-05-05 07:41 | 52.10797 | 16.00377 | 34897 ft | 473 kts | 89° |
| 2026-05-05 07:41 | 52.11160 | 16.11064 | 34902 ft | 472 kts | 89° |
| 2026-05-05 07:42 | 52.11508 | 16.21735 | 34904 ft | 472 kts | 89° |
| 2026-05-05 07:42 | 52.11853 | 16.32404 | 34922 ft | 472 kts | 89° |
| 2026-05-05 07:43 | 52.12187 | 16.43072 | 34903 ft | 472 kts | 89° |
| 2026-05-05 07:43 | 52.12503 | 16.53725 | 34905 ft | 472 kts | 89° |
| 2026-05-05 07:44 | 52.12812 | 16.64337 | 34911 ft | 471 kts | 89° |
| 2026-05-05 07:44 | 52.13281 | 16.74982 | 34905 ft | 473 kts | 82° |
| 2026-05-05 07:45 | 52.14361 | 16.85533 | 34904 ft | 473 kts | 82° |
| 2026-05-05 07:45 | 52.15406 | 16.96122 | 34920 ft | 473 kts | 83° |
| 2026-05-05 07:46 | 52.16443 | 17.06681 | 34914 ft | 472 kts | 82° |
| 2026-05-05 07:46 | 52.17479 | 17.17237 | 34917 ft | 472 kts | 82° |
| 2026-05-05 07:47 | 52.18507 | 17.27800 | 34920 ft | 471 kts | 83° |
| 2026-05-05 07:47 | 52.19514 | 17.38340 | 34919 ft | 471 kts | 83° |
| 2026-05-05 07:48 | 52.20523 | 17.48894 | 34919 ft | 471 kts | 83° |
| 2026-05-05 07:48 | 52.21505 | 17.59382 | 34912 ft | 470 kts | 83° |
| 2026-05-05 07:49 | 52.22482 | 17.69936 | 34923 ft | 470 kts | 83° |
| 2026-05-05 07:49 | 52.23445 | 17.80464 | 34917 ft | 469 kts | 83° |
| 2026-05-05 07:50 | 52.23925 | 17.85729 | 34412 ft | 469 kts | 83° |
| 2026-05-05 07:50 | 52.24404 | 17.90983 | 33920 ft | 467 kts | 83° |
| 2026-05-05 07:50 | 52.24876 | 17.96201 | 33390 ft | 463 kts | 83° |
| 2026-05-05 07:50 | 52.25344 | 18.01382 | 32889 ft | 460 kts | 83° |
| 2026-05-05 07:51 | 52.25806 | 18.06528 | 32370 ft | 456 kts | 83° |
| 2026-05-05 07:51 | 52.26266 | 18.11642 | 31906 ft | 452 kts | 83° |
| 2026-05-05 07:51 | 52.26718 | 18.16700 | 31441 ft | 448 kts | 83° |
| 2026-05-05 07:51 | 52.27014 | 18.20032 | 31116 ft | 446 kts | 83° |
| 2026-05-05 07:52 | 52.27601 | 18.26708 | 30482 ft | 442 kts | 83° |
| 2026-05-05 07:52 | 52.27888 | 18.29997 | 30171 ft | 440 kts | 83° |
| 2026-05-05 07:52 | 52.28315 | 18.34933 | 29665 ft | 438 kts | 83° |
| 2026-05-05 07:52 | 52.28736 | 18.39839 | 29137 ft | 434 kts | 83° |
| 2026-05-05 07:53 | 52.29153 | 18.44706 | 28650 ft | 431 kts | 83° |
| 2026-05-05 07:53 | 52.29704 | 18.51113 | 27983 ft | 428 kts | 83° |
| 2026-05-05 07:53 | 52.30114 | 18.55911 | 27510 ft | 425 kts | 83° |
| 2026-05-05 07:53 | 52.30387 | 18.59136 | 27195 ft | 423 kts | 83° |
| 2026-05-05 07:54 | 52.30788 | 18.63880 | 26734 ft | 420 kts | 83° |
| 2026-05-05 07:54 | 52.31185 | 18.68577 | 26349 ft | 415 kts | 83° |
| 2026-05-05 07:54 | 52.31572 | 18.73172 | 25945 ft | 412 kts | 83° |
| 2026-05-05 07:54 | 52.31956 | 18.77795 | 25538 ft | 409 kts | 83° |
| 2026-05-05 07:55 | 52.32335 | 18.82387 | 25136 ft | 406 kts | 83° |
| 2026-05-05 07:55 | 52.32708 | 18.86951 | 24729 ft | 404 kts | 83° |
| 2026-05-05 07:55 | 52.33079 | 18.91490 | 24322 ft | 401 kts | 83° |
| 2026-05-05 07:55 | 52.33441 | 18.96008 | 23918 ft | 398 kts | 84° |
| 2026-05-05 07:56 | 52.33735 | 19.00495 | 23524 ft | 396 kts | 85° |
| 2026-05-05 07:56 | 52.33971 | 19.04961 | 23224 ft | 394 kts | 86° |
| 2026-05-05 07:56 | 52.34180 | 19.09431 | 22923 ft | 394 kts | 86° |
| 2026-05-05 07:56 | 52.34381 | 19.13882 | 22626 ft | 393 kts | 86° |
| 2026-05-05 07:57 | 52.34585 | 19.18329 | 22321 ft | 392 kts | 86° |
| 2026-05-05 07:57 | 52.34799 | 19.22771 | 22030 ft | 390 kts | 86° |
| 2026-05-05 07:57 | 52.35019 | 19.27188 | 21738 ft | 389 kts | 86° |
| 2026-05-05 07:57 | 52.35243 | 19.31578 | 21473 ft | 387 kts | 86° |
| 2026-05-05 07:58 | 52.35465 | 19.35964 | 21215 ft | 386 kts | 86° |
| 2026-05-05 07:58 | 52.35684 | 19.40337 | 20956 ft | 385 kts | 86° |
| 2026-05-05 07:58 | 52.35899 | 19.44694 | 20702 ft | 384 kts | 87° |
| 2026-05-05 07:58 | 52.36110 | 19.49034 | 20452 ft | 382 kts | 87° |
| 2026-05-05 07:59 | 52.36316 | 19.53316 | 20210 ft | 381 kts | 87° |
| 2026-05-05 07:59 | 52.36521 | 19.57637 | 19970 ft | 381 kts | 87° |
| 2026-05-05 07:59 | 52.36721 | 19.61962 | 19728 ft | 381 kts | 87° |
| 2026-05-05 07:59 | 52.36918 | 19.66263 | 19357 ft | 378 kts | 87° |
| 2026-05-05 08:00 | 52.37114 | 19.70539 | 18930 ft | 376 kts | 87° |
| 2026-05-05 08:00 | 52.37308 | 19.74789 | 18510 ft | 374 kts | 88° |
| 2026-05-05 08:00 | 52.37309 | 19.79015 | 18068 ft | 370 kts | 98° |
| 2026-05-05 08:00 | 52.36994 | 19.83170 | 17585 ft | 367 kts | 100° |
| 2026-05-05 08:01 | 52.36672 | 19.87300 | 17129 ft | 365 kts | 100° |
| 2026-05-05 08:01 | 52.36353 | 19.91407 | 16691 ft | 363 kts | 100° |
| 2026-05-05 08:01 | 52.36038 | 19.95481 | 16268 ft | 361 kts | 100° |
| 2026-05-05 08:01 | 52.35721 | 19.99539 | 15852 ft | 359 kts | 100° |
| 2026-05-05 08:02 | 52.35402 | 20.03582 | 15444 ft | 357 kts | 101° |
| 2026-05-05 08:02 | 52.35083 | 20.07594 | 15047 ft | 355 kts | 101° |
| 2026-05-05 08:02 | 52.34766 | 20.11582 | 14649 ft | 353 kts | 101° |
| 2026-05-05 08:02 | 52.34450 | 20.15561 | 14265 ft | 351 kts | 101° |
| 2026-05-05 08:03 | 52.34134 | 20.19510 | 13889 ft | 349 kts | 101° |
| 2026-05-05 08:03 | 52.33821 | 20.23413 | 13689 ft | 341 kts | 101° |
| 2026-05-05 08:03 | 52.33515 | 20.27204 | 13537 ft | 332 kts | 101° |
| 2026-05-05 08:03 | 52.33216 | 20.30867 | 13267 ft | 327 kts | 101° |
| 2026-05-05 08:04 | 52.32915 | 20.34548 | 12952 ft | 325 kts | 101° |
| 2026-05-05 08:04 | 52.32615 | 20.38200 | 12629 ft | 322 kts | 101° |
| 2026-05-05 08:04 | 52.32313 | 20.41825 | 12309 ft | 320 kts | 101° |
| 2026-05-05 08:04 | 52.32012 | 20.45422 | 11994 ft | 318 kts | 101° |
| 2026-05-05 08:05 | 52.31717 | 20.48940 | 11697 ft | 316 kts | 101° |
| 2026-05-05 08:05 | 52.31423 | 20.52483 | 11389 ft | 313 kts | 101° |
| 2026-05-05 08:05 | 52.31130 | 20.56007 | 11075 ft | 311 kts | 101° |
| 2026-05-05 08:05 | 52.30840 | 20.59502 | 10770 ft | 309 kts | 101° |
| 2026-05-05 08:06 | 52.30549 | 20.62974 | 10470 ft | 307 kts | 101° |
| 2026-05-05 08:06 | 52.30259 | 20.66415 | 10169 ft | 305 kts | 101° |
| 2026-05-05 08:06 | 52.29968 | 20.69834 | 9878 ft | 303 kts | 101° |
| 2026-05-05 08:06 | 52.29677 | 20.73229 | 9536 ft | 301 kts | 101° |
| 2026-05-05 08:07 | 52.29385 | 20.76616 | 9180 ft | 299 kts | 101° |
| 2026-05-05 08:07 | 52.29099 | 20.79974 | 8868 ft | 297 kts | 101° |
| 2026-05-05 08:07 | 52.28815 | 20.83310 | 8543 ft | 296 kts | 101° |
| 2026-05-05 08:07 | 52.28528 | 20.86626 | 8248 ft | 294 kts | 101° |
| 2026-05-05 08:08 | 52.28242 | 20.89920 | 7951 ft | 292 kts | 101° |
| 2026-05-05 08:08 | 52.27960 | 20.93150 | 7643 ft | 290 kts | 101° |
| 2026-05-05 08:08 | 52.27672 | 20.96442 | 7336 ft | 289 kts | 101° |
| 2026-05-05 08:08 | 52.27217 | 20.99596 | 7043 ft | 283 kts | 114° |
| 2026-05-05 08:09 | 52.26289 | 21.02336 | 6758 ft | 278 kts | 130° |
| 2026-05-05 08:09 | 52.24949 | 21.04556 | 6456 ft | 272 kts | 146° |
| 2026-05-05 08:09 | 52.23342 | 21.06131 | 6166 ft | 268 kts | 155° |
| 2026-05-05 08:09 | 52.21719 | 21.07525 | 6037 ft | 260 kts | 155° |
| 2026-05-05 08:10 | 52.20147 | 21.08881 | 5901 ft | 252 kts | 154° |
| 2026-05-05 08:10 | 52.18616 | 21.10201 | 5782 ft | 245 kts | 155° |
| 2026-05-05 08:10 | 52.17129 | 21.11483 | 5651 ft | 239 kts | 155° |
| 2026-05-05 08:10 | 52.15671 | 21.12740 | 5478 ft | 236 kts | 155° |
| 2026-05-05 08:11 | 52.14225 | 21.13990 | 5185 ft | 235 kts | 154° |
| 2026-05-05 08:11 | 52.12793 | 21.15244 | 5020 ft | 234 kts | 154° |
| 2026-05-05 08:11 | 52.11356 | 21.16504 | 5009 ft | 235 kts | 154° |
| 2026-05-05 08:11 | 52.09929 | 21.17752 | 5005 ft | 235 kts | 154° |
| 2026-05-05 08:12 | 52.08466 | 21.19030 | 5010 ft | 236 kts | 154° |
| 2026-05-05 08:12 | 52.07045 | 21.20272 | 5007 ft | 235 kts | 154° |
| 2026-05-05 08:12 | 52.05599 | 21.21541 | 5018 ft | 235 kts | 154° |
| 2026-05-05 08:12 | 52.04160 | 21.22805 | 5012 ft | 234 kts | 154° |
| 2026-05-05 08:13 | 52.02720 | 21.24055 | 5015 ft | 234 kts | 156° |
| 2026-05-05 08:13 | 52.01173 | 21.24794 | 5027 ft | 231 kts | 176° |
| 2026-05-05 08:13 | 51.99594 | 21.24634 | 4856 ft | 227 kts | 196° |
| 2026-05-05 08:13 | 51.98136 | 21.23721 | 4588 ft | 225 kts | 204° |
| 2026-05-05 08:14 | 51.96699 | 21.22695 | 4261 ft | 226 kts | 208° |
| 2026-05-05 08:14 | 51.95542 | 21.21085 | 4044 ft | 224 kts | 236° |
| 2026-05-05 08:14 | 51.95028 | 21.18718 | 4013 ft | 226 kts | 265° |
| 2026-05-05 08:14 | 51.95318 | 21.16175 | 3836 ft | 238 kts | 296° |
| 2026-05-05 08:15 | 51.96428 | 21.14234 | 3694 ft | 237 kts | 327° |
| 2026-05-05 08:15 | 51.97855 | 21.12989 | 3550 ft | 232 kts | 330° |
| 2026-05-05 08:15 | 51.99279 | 21.11761 | 3296 ft | 232 kts | 330° |
| 2026-05-05 08:15 | 52.00710 | 21.10520 | 3096 ft | 232 kts | 330° |
| 2026-05-05 08:16 | 52.02109 | 21.09305 | 3024 ft | 224 kts | 330° |
| 2026-05-05 08:16 | 52.03472 | 21.08124 | 2904 ft | 221 kts | 330° |
| 2026-05-05 08:16 | 52.04817 | 21.06956 | 2683 ft | 218 kts | 330° |
| 2026-05-05 08:16 | 52.06142 | 21.05805 | 2394 ft | 213 kts | 330° |
| 2026-05-05 08:17 | 52.07428 | 21.04686 | 2142 ft | 206 kts | 330° |
| 2026-05-05 08:17 | 52.08664 | 21.03611 | 1863 ft | 196 kts | 331° |
| 2026-05-05 08:17 | 52.09807 | 21.02617 | 1644 ft | 173 kts | 332° |
| 2026-05-05 08:17 | 52.10809 | 21.01742 | 1394 ft | 157 kts | 333° |
| 2026-05-05 08:18 | 52.11751 | 21.00922 | 1187 ft | 150 kts | 333° |
| 2026-05-05 08:18 | 52.12659 | 21.00130 | 1006 ft | 147 kts | 333° |
| 2026-05-05 08:18 | 52.13556 | 20.99348 | 816 ft | 146 kts | 333° |
| 2026-05-05 08:18 | 52.14450 | 20.98568 | 650 ft | 146 kts | 333° |
| 2026-05-05 08:19 | 52.15332 | 20.97797 | 440 ft | 145 kts | 333° |
| 2026-05-05 08:19 | 52.16183 | 20.97055 | 338 ft | 124 kts | 331° |
| 2026-05-05 08:19 | 52.16789 | 20.96526 | 336 ft | 75 kts | 332° |
| 2026-05-05 08:19 | 52.17021 | 20.96323 | 335 ft | 22 kts | 334° |
| 2026-05-05 08:20 | 52.17174 | 20.96249 | 334 ft | 24 kts | 352° |
| 2026-05-05 08:20 | 52.17329 | 20.96245 | 334 ft | 11 kts | 2° |
| 2026-05-05 08:20 | 52.17398 | 20.96298 | 333 ft | 12 kts | 52° |
| 2026-05-05 08:20 | 52.17445 | 20.96434 | 337 ft | 15 kts | 61° |
| 2026-05-05 08:21 | 52.17470 | 20.96530 | 336 ft | 8 kts | 87° |
| 2026-05-05 08:21 | 52.17427 | 20.96603 | 339 ft | 11 kts | 150° |
| 2026-05-05 08:21 | 52.17352 | 20.96668 | 337 ft | 14 kts | 152° |
| 2026-05-05 08:21 | 52.17260 | 20.96749 | 335 ft | 16 kts | 152° |
| 2026-05-05 08:22 | 52.17151 | 20.96845 | 336 ft | 19 kts | 152° |
| 2026-05-05 08:22 | 52.17027 | 20.96954 | 337 ft | 22 kts | 152° |
| 2026-05-05 08:22 | 52.16887 | 20.97077 | 334 ft | 24 kts | 152° |
| 2026-05-05 08:22 | 52.16789 | 20.97163 | 335 ft | 11 kts | 152° |
| 2026-05-05 08:23 | 52.16740 | 20.97213 | 337 ft | 7 kts | 126° |
| 2026-05-05 08:23 | 52.16751 | 20.97270 | 336 ft | 6 kts | 58° |
| 2026-05-05 08:23 | 52.16768 | 20.97320 | 334 ft | 2 kts | 62° |
| 2026-05-05 08:23 | 52.16773 | 20.97334 | 335 ft | 0 kts | 62° |